Time;durP1;ratioP1;P1;durP2;ratioP2;P2;SDS_P1;SDS_P2;PMS_P1;PMS_P2;Temp;Humidity;BMP_temperature;BMP_pressure;BME280_temperature;BME280_humidity;BME280_pressure;Samples;Min_cycle;Max_cycle;Signal;HPM_P1;HPM_P2
2021/09/07 00:02:18;;;;;;;14.07;5.80;;;17.00;83.70;;;;;;5069985;28;20479;-68
2021/09/07 00:04:45;;;;;;;18.43;9.50;;;17.20;81.60;;;;;;5051593;28;20468;-66
2021/09/07 00:07:13;;;;;;;15.60;8.13;;;17.40;80.70;;;;;;5053990;28;20827;-66
2021/09/07 00:09:40;;;;;;;15.57;7.53;;;17.50;78.80;;;;;;5053613;28;20448;-66
2021/09/07 00:12:08;;;;;;;14.77;6.50;;;17.70;77.80;;;;;;5053859;28;20447;-67
2021/09/07 00:14:35;;;;;;;20.97;9.83;;;17.90;77.30;;;;;;5053033;28;20927;-67
2021/09/07 00:17:02;;;;;;;15.30;6.80;;;18.00;75.70;;;;;;5054061;28;20443;-66
2021/09/07 00:19:30;;;;;;;14.30;5.80;;;18.20;74.10;;;;;;5053763;28;20566;-67
2021/09/07 00:21:57;;;;;;;15.10;7.37;;;18.20;72.00;;;;;;5053761;28;20461;-66
2021/09/07 00:24:25;;;;;;;32.43;6.20;;;18.40;71.50;;;;;;5052370;28;20313;-65
2021/09/07 00:26:52;;;;;;;15.33;7.10;;;18.50;69.80;;;;;;5053515;28;20774;-67
2021/09/07 00:29:19;;;;;;;14.67;7.23;;;18.60;67.00;;;;;;5053539;28;20191;-67
2021/09/07 00:31:47;;;;;;;15.90;7.03;;;18.70;65.40;;;;;;5053506;28;20183;-67
2021/09/07 00:34:14;;;;;;;15.20;8.33;;;18.90;65.20;;;;;;5054061;28;20190;-67
2021/09/07 00:36:42;;;;;;;16.43;11.43;;;19.00;63.20;;;;;;5054625;28;20194;-69
2021/09/07 00:39:12;;;;;;;15.60;6.97;;;19.00;63.40;;;;;;5061510;28;20194;-66
2021/09/07 00:41:40;;;;;;;17.67;7.53;;;19.10;63.10;;;;;;5053492;28;20192;-66
2021/09/07 00:44:25;;;;;;;15.10;6.43;;;19.10;62.80;;;;;;5053210;28;20227;-67
2021/09/07 00:46:56;;;;;;;19.53;9.20;;;19.40;62.10;;;;;;5053140;28;20183;-68
2021/09/07 00:49:25;;;;;;;22.27;7.43;;;19.40;61.20;;;;;;5053078;28;20191;-68
2021/09/07 00:51:55;;;;;;;16.50;8.80;;;19.40;60.90;;;;;;5052633;28;20189;-68
2021/09/07 00:54:26;;;;;;;15.83;8.93;;;19.50;62.10;;;;;;5051506;28;20649;-67
2021/09/07 00:56:57;;;;;;;12.47;6.10;;;19.70;61.60;;;;;;5052995;28;20658;-68
2021/09/07 00:59:25;;;;;;;40.17;11.47;;;19.90;61.40;;;;;;5053042;28;20238;-67
2021/09/07 01:01:53;;;;;;;27.50;9.67;;;20.00;60.90;;;;;;5052672;28;20347;-67
2021/09/07 01:04:20;;;;;;;673.88;211.13;;;20.30;59.60;;;;;;5053273;28;20442;-67
2021/09/07 01:06:50;;;;;;;359.40;110.20;;;20.40;58.80;;;;;;5052464;28;20210;-67
2021/09/07 01:09:18;;;;;;;615.77;196.07;;;20.60;56.10;;;;;;5052741;28;20427;-67
2021/09/07 01:11:45;;;;;;;630.50;200.37;;;20.80;55.40;;;;;;5052951;28;20441;-66
2021/09/07 01:14:18;;;;;;;22.10;8.40;;;20.80;53.20;;;;;;5052455;28;20416;-67
2021/09/07 01:16:46;;;;;;;624.33;197.43;;;20.80;53.00;;;;;;5050930;28;20643;-66
2021/09/07 01:19:14;;;;;;;623.13;198.23;;;20.90;53.90;;;;;;5041418;28;20465;-69
2021/09/07 01:21:41;;;;;;;625.97;201.70;;;21.10;53.60;;;;;;5032978;28;20437;-66
2021/09/07 01:24:08;;;;;;;415.83;131.30;;;21.20;52.10;;;;;;5044848;28;20833;-67
2021/09/07 01:26:36;;;;;;;623.83;206.43;;;21.20;49.80;;;;;;5050723;28;20520;-71
2021/09/07 01:29:05;;;;;;;596.10;196.00;;;21.30;49.30;;;;;;5051882;28;20523;-67
2021/09/07 01:31:32;;;;;;;633.93;204.90;;;21.20;48.50;;;;;;5052164;28;20954;-68
2021/09/07 01:33:59;;;;;;;49.43;14.20;;;21.40;48.00;;;;;;5049058;28;20468;-69
2021/09/07 01:36:27;;;;;;;341.97;108.37;;;21.40;46.20;;;;;;5035240;28;20664;-69
2021/09/07 01:38:54;;;;;;;10.87;7.97;;;21.60;46.80;;;;;;5046182;28;20432;-68
2021/09/07 01:41:22;;;;;;;634.90;208.53;;;21.70;47.50;;;;;;5051995;28;20601;-67
2021/09/07 01:43:52;;;;;;;641.77;210.67;;;21.90;46.80;;;;;;5051086;28;20468;-70
2021/09/07 01:46:20;;;;;;;624.50;203.60;;;22.00;45.20;;;;;;5052019;28;20455;-68
2021/09/07 01:48:47;;;;;;;652.43;220.13;;;22.10;46.40;;;;;;5052723;28;20433;-68
2021/09/07 01:51:14;;;;;;;13.47;6.27;;;22.30;45.10;;;;;;5047842;28;20452;-67
2021/09/07 01:53:42;;;;;;;377.23;125.37;;;22.10;45.90;;;;;;5052976;28;20635;-66
2021/09/07 01:56:09;;;;;;;421.53;137.50;;;22.40;45.90;;;;;;5053234;28;20184;-67
2021/09/07 01:58:36;;;;;;;369.23;120.97;;;22.60;44.80;;;;;;5055346;28;20460;-71
2021/09/07 02:01:05;;;;;;;605.87;211.07;;;22.50;44.70;;;;;;5054838;28;20557;-68
2021/09/07 02:03:32;;;;;;;23.83;7.83;;;22.80;44.90;;;;;;5048767;28;20472;-67
2021/09/07 02:05:59;;;;;;;657.20;218.43;;;23.10;45.10;;;;;;5056353;28;20184;-69
2021/09/07 02:08:27;;;;;;;427.80;142.53;;;23.20;43.60;;;;;;5055567;28;20452;-67
2021/09/07 02:10:54;;;;;;;639.93;220.30;;;23.40;43.70;;;;;;5055311;28;20547;-66
2021/09/07 02:13:21;;;;;;;647.57;228.97;;;23.50;44.30;;;;;;5055869;28;20213;-68
2021/09/07 02:15:49;;;;;;;405.37;137.23;;;23.50;44.20;;;;;;5056149;28;20236;-70
2021/09/07 02:18:16;;;;;;;463.83;148.73;;;23.90;43.40;;;;;;5056124;28;20184;-68
2021/09/07 02:20:43;;;;;;;1032.33;343.27;;;23.80;42.50;;;;;;5055550;28;20199;-68
2021/09/07 02:23:11;;;;;;;473.87;159.60;;;23.80;43.00;;;;;;5055113;28;20509;-68
2021/09/07 02:25:38;;;;;;;695.40;235.20;;;23.90;43.00;;;;;;5056293;28;20268;-69
2021/09/07 02:28:05;;;;;;;956.50;337.10;;;24.00;42.80;;;;;;5063787;28;20436;-67
2021/09/07 02:30:33;;;;;;;658.37;233.30;;;23.90;42.20;;;;;;5057910;28;20931;-67
2021/09/07 02:33:00;;;;;;;645.70;237.40;;;24.00;42.20;;;;;;5055189;28;20443;-67
2021/09/07 02:35:30;;;;;;;692.10;245.97;;;24.10;42.70;;;;;;5042124;28;20183;-67
2021/09/07 02:37:57;;;;;;;452.70;152.57;;;24.20;42.10;;;;;;5040979;28;20677;-67
2021/09/07 02:40:25;;;;;;;964.03;356.33;;;24.10;41.70;;;;;;5054326;28;20184;-66
2021/09/07 02:42:52;;;;;;;1022.30;398.87;;;24.40;42.20;;;;;;5053489;28;20452;-68
2021/09/07 02:45:20;;;;;;;1085.60;421.23;;;24.80;42.00;;;;;;5055400;28;20851;-68
2021/09/07 02:47:49;;;;;;;1215.60;886.40;;;25.00;41.40;;;;;;5055549;28;20458;-67
2021/09/07 02:50:17;;;;;;;849.50;617.87;;;25.00;42.30;;;;;;5055438;28;20634;-70
2021/09/07 02:52:44;;;;;;;1031.87;823.80;;;25.00;42.10;;;;;;5054736;28;20263;-67
2021/09/07 02:55:12;;;;;;;1105.30;870.73;;;24.50;41.60;;;;;;5050193;28;20189;-71
2021/09/07 02:57:39;;;;;;;723.50;582.83;;;24.30;42.10;;;;;;5055204;28;20539;-68
2021/09/07 03:00:08;;;;;;;745.03;584.80;;;24.40;42.60;;;;;;5052629;28;20180;-69
2021/09/07 03:02:35;;;;;;;1004.77;824.33;;;24.50;41.70;;;;;;5054767;28;20588;-67
2021/09/07 03:05:03;;;;;;;994.23;808.70;;;24.80;42.40;;;;;;5050861;28;20224;-68
2021/09/07 03:07:30;;;;;;;985.97;806.67;;;24.90;42.00;;;;;;5050769;28;20184;-71
2021/09/07 03:09:58;;;;;;;976.67;795.97;;;25.00;42.20;;;;;;5037405;28;20234;-70
2021/09/07 03:12:25;;;;;;;967.50;777.67;;;24.70;42.70;;;;;;5047282;28;20650;-67
2021/09/07 03:14:52;;;;;;;972.87;785.37;;;24.60;42.90;;;;;;5052938;28;20919;-67
2021/09/07 03:17:20;;;;;;;970.73;777.17;;;24.90;42.70;;;;;;5053775;28;20237;-67
2021/09/07 03:19:47;;;;;;;963.33;770.60;;;24.90;42.30;;;;;;5053830;28;20233;-66
2021/09/07 03:22:15;;;;;;;962.27;766.37;;;25.10;41.90;;;;;;5053760;28;20184;-68
2021/09/07 03:24:42;;;;;;;959.17;755.13;;;25.10;42.20;;;;;;5052934;28;20230;-72
2021/09/07 03:27:09;;;;;;;965.13;762.93;;;25.50;42.10;;;;;;5053534;28;20195;-68
2021/09/07 03:29:37;;;;;;;971.50;787.53;;;25.40;42.80;;;;;;5051399;28;20666;-69
2021/09/07 03:32:04;;;;;;;970.93;782.03;;;25.90;43.50;;;;;;5037383;28;20180;-68
2021/09/07 03:34:32;;;;;;;967.87;768.80;;;25.70;42.50;;;;;;5054486;28;20183;-68
2021/09/07 03:36:59;;;;;;;966.83;773.30;;;25.60;42.80;;;;;;5054386;28;20191;-69
2021/09/07 03:39:26;;;;;;;970.73;777.77;;;25.30;43.10;;;;;;5054150;28;20619;-70
2021/09/07 03:41:54;;;;;;;968.43;776.00;;;25.40;42.60;;;;;;5053768;28;20253;-69
2021/09/07 03:44:22;;;;;;;980.13;796.00;;;25.70;43.80;;;;;;5054162;28;20222;-70
2021/09/07 03:46:50;;;;;;;976.03;798.77;;;25.90;43.00;;;;;;5053349;28;20548;-69
2021/09/07 03:49:17;;;;;;;994.30;822.13;;;26.00;43.20;;;;;;5042892;28;20365;-70
2021/09/07 03:51:44;;;;;;;1011.47;853.50;;;26.10;43.10;;;;;;5044177;28;20185;-67
2021/09/07 03:54:12;;;;;;;995.17;836.10;;;25.90;42.80;;;;;;5049452;28;20199;-68
2021/09/07 03:56:39;;;;;;;989.50;818.13;;;26.00;43.10;;;;;;5046311;28;20216;-69
2021/09/07 03:59:06;;;;;;;993.80;828.87;;;26.10;42.90;;;;;;5044546;28;20192;-68
2021/09/07 04:01:33;;;;;;;985.77;816.57;;;26.20;43.30;;;;;;5045499;28;20796;-69
2021/09/07 04:04:01;;;;;;;1001.17;837.60;;;26.30;43.30;;;;;;5044277;28;20222;-70
2021/09/07 04:06:28;;;;;;;1004.27;844.20;;;26.60;42.50;;;;;;5052021;28;20196;-70
2021/09/07 04:08:55;;;;;;;1015.73;869.33;;;27.20;43.00;;;;;;5052394;28;20595;-69
2021/09/07 04:11:23;;;;;;;1018.17;874.30;;;27.80;42.50;;;;;;5045815;28;20204;-69
2021/09/07 04:13:50;;;;;;;1020.00;874.57;;;27.50;43.30;;;;;;5056384;28;20190;-69
2021/09/07 04:16:17;;;;;;;1102.77;937.77;;;27.80;43.20;;;;;;5061795;28;20192;-71
2021/09/07 04:18:45;;;;;;;1072.00;925.27;;;27.30;42.70;;;;;;5053884;28;20200;-69
2021/09/07 04:21:12;;;;;;;1049.77;904.80;;;26.50;43.50;;;;;;5048690;28;20555;-69
2021/09/07 04:23:40;;;;;;;1047.57;906.03;;;26.90;43.90;;;;;;5050747;28;20220;-71
2021/09/07 04:26:07;;;;;;;1051.20;907.10;;;27.20;43.50;;;;;;5050420;28;20179;-69
2021/09/07 04:28:34;;;;;;;1045.13;897.67;;;26.90;44.00;;;;;;5049680;28;20267;-73
2021/09/07 04:31:02;;;;;;;1093.53;927.80;;;26.90;43.50;;;;;;5051424;28;20690;-71
2021/09/07 04:33:29;;;;;;;1063.83;916.43;;;26.80;43.70;;;;;;5047030;28;20554;-70
2021/09/07 04:35:56;;;;;;;1081.23;912.43;;;27.40;43.60;;;;;;5051823;28;20607;-68
2021/09/07 04:38:24;;;;;;;1150.40;928.37;;;27.00;43.60;;;;;;5048084;28;20187;-70
2021/09/07 04:40:51;;;;;;;1204.60;920.43;;;27.10;43.60;;;;;;5041848;28;20191;-69
2021/09/07 04:43:28;;;;;;;1141.20;932.43;;;27.10;43.80;;;;;;5049142;28;20705;-75
2021/09/07 04:46:03;;;;;;;1090.63;434.73;;;27.10;44.50;;;;;;5054580;28;20264;-71
2021/09/07 04:49:37;;;;;;;1130.50;580.77;;;26.80;44.30;;;;;;5050383;28;20187;-70
2021/09/07 04:51:45;;;;;;;1183.03;911.50;;;27.40;44.80;;;;;;5040137;28;20199;-74
2021/09/07 04:54:12;;;;;;;1153.90;943.07;;;27.80;44.60;;;;;;5050697;28;20689;-70
2021/09/07 04:56:40;;;;;;;1173.73;925.20;;;27.90;44.00;;;;;;5053488;28;20670;-73
2021/09/07 04:59:11;;;;;;;1156.77;919.17;;;28.10;44.20;;;;;;5050412;28;20296;-72
2021/09/07 05:01:50;;;;;;;1120.50;555.30;;;27.90;44.00;;;;;;5054324;28;20224;-74
2021/09/07 05:04:22;;;;;;;1131.50;937.93;;;27.50;43.60;;;;;;5048555;28;20211;-72
2021/09/07 05:06:49;;;;;;;1066.90;920.33;;;27.50;43.60;;;;;;5046572;28;20180;-69
2021/09/07 05:09:16;;;;;;;1058.20;919.83;;;27.70;43.40;;;;;;5051403;28;20676;-68
2021/09/07 05:11:44;;;;;;;1047.67;913.80;;;27.00;43.50;;;;;;5051026;28;20183;-68
2021/09/07 05:14:11;;;;;;;1033.33;906.60;;;27.90;44.00;;;;;;5046690;28;20187;-68
2021/09/07 05:16:39;;;;;;;1043.37;908.73;;;27.90;43.20;;;;;;5050536;28;20234;-67
2021/09/07 05:19:07;;;;;;;1103.23;937.77;;;27.40;43.70;;;;;;5050881;28;20194;-72
2021/09/07 05:21:34;;;;;;;1175.50;935.10;;;27.30;43.50;;;;;;5050228;28;20187;-67
2021/09/07 05:24:01;;;;;;;1065.43;923.60;;;27.10;43.70;;;;;;5048549;28;20223;-69
2021/09/07 05:26:29;;;;;;;1059.77;924.80;;;27.80;43.70;;;;;;5049820;28;20719;-67
2021/09/07 05:28:56;;;;;;;1039.30;907.33;;;27.80;42.80;;;;;;5050117;28;20607;-67
2021/09/07 05:31:23;;;;;;;1019.23;880.50;;;27.60;43.60;;;;;;5050127;28;20646;-68
2021/09/07 05:33:51;;;;;;;1016.03;882.40;;;28.10;43.40;;;;;;5050323;28;20693;-70
2021/09/07 05:36:18;;;;;;;1010.00;869.67;;;27.90;43.00;;;;;;5049347;28;20180;-69
2021/09/07 05:38:46;;;;;;;1002.73;861.20;;;27.30;42.90;;;;;;5050183;28;20184;-70
2021/09/07 05:41:13;;;;;;;998.67;854.83;;;27.50;43.50;;;;;;5050438;28;20275;-69
2021/09/07 05:43:40;;;;;;;1015.37;875.67;;;27.70;43.10;;;;;;5050459;28;20663;-68
2021/09/07 05:46:07;;;;;;;1060.40;917.77;;;27.20;43.60;;;;;;5051315;28;20195;-68
2021/09/07 05:48:35;;;;;;;1127.87;925.33;;;26.90;43.30;;;;;;5048982;28;20219;-67
2021/09/07 05:51:02;;;;;;;1129.33;919.23;;;26.70;44.10;;;;;;5046698;28;20672;-69
2021/09/07 05:53:29;;;;;;;1100.37;920.47;;;26.90;44.40;;;;;;5050205;28;20642;-69
2021/09/07 05:55:57;;;;;;;1078.03;924.00;;;26.60;44.30;;;;;;5050648;28;20274;-68
2021/09/07 05:58:24;;;;;;;1059.90;909.90;;;26.60;44.30;;;;;;5051490;28;20180;-72
2021/09/07 06:00:51;;;;;;;1123.30;928.87;;;26.50;43.90;;;;;;5052184;28;20571;-69
2021/09/07 06:03:19;;;;;;;1227.40;888.47;;;26.20;44.50;;;;;;5056376;28;20211;-70
2021/09/07 06:05:46;;;;;;;1217.07;891.70;;;26.40;44.90;;;;;;5052890;28;20203;-71
2021/09/07 06:08:14;;;;;;;1197.43;912.63;;;26.50;44.40;;;;;;5050100;28;20188;-69
2021/09/07 06:10:41;;;;;;;1142.00;913.33;;;26.20;44.90;;;;;;5049209;28;20188;-68
2021/09/07 06:13:09;;;;;;;1101.10;904.80;;;26.60;44.90;;;;;;5051154;28;20184;-68
2021/09/07 06:15:36;;;;;;;1105.67;917.10;;;26.60;44.90;;;;;;5051071;28;20550;-67
2021/09/07 06:18:04;;;;;;;1091.40;912.97;;;26.80;44.70;;;;;;5050713;28;20622;-67
2021/09/07 06:20:31;;;;;;;1081.43;909.43;;;26.50;45.30;;;;;;5044338;28;20217;-68
2021/09/07 06:22:58;;;;;;;1099.17;920.57;;;26.30;45.10;;;;;;5050821;28;20708;-68
2021/09/07 06:25:26;;;;;;;1131.20;923.13;;;26.00;45.40;;;;;;5049159;28;20231;-67
2021/09/07 06:27:53;;;;;;;788.87;639.17;;;26.10;45.40;;;;;;5049518;28;20188;-67
2021/09/07 06:30:20;;;;;;;1109.30;922.33;;;26.60;45.40;;;;;;5044394;28;20200;-66
2021/09/07 06:32:48;;;;;;;1108.47;919.23;;;26.50;45.30;;;;;;5044404;28;20195;-68
2021/09/07 06:35:16;;;;;;;1099.80;934.97;;;26.40;45.30;;;;;;5048754;28;20639;-68
2021/09/07 06:37:44;;;;;;;1128.03;914.27;;;25.90;45.00;;;;;;5053417;28;20215;-68
2021/09/07 06:40:12;;;;;;;1128.17;916.13;;;25.60;45.80;;;;;;5054380;28;20259;-68
2021/09/07 06:42:39;;;;;;;825.37;633.77;;;25.50;46.00;;;;;;5055066;28;20180;-69
2021/09/07 06:45:08;;;;;;;1139.37;904.30;;;25.20;46.10;;;;;;5054635;28;20220;-69
2021/09/07 06:47:35;;;;;;;771.03;627.03;;;25.30;46.40;;;;;;5055234;28;20547;-69
2021/09/07 06:50:03;;;;;;;1032.80;869.43;;;25.50;46.50;;;;;;5054911;28;20188;-69
2021/09/07 06:52:31;;;;;;;1037.60;880.53;;;25.70;46.80;;;;;;5054611;28;20192;-68
2021/09/07 06:54:59;;;;;;;1031.30;867.03;;;25.60;45.80;;;;;;5053274;28;20191;-69
2021/09/07 06:57:27;;;;;;;1046.80;890.53;;;25.20;46.50;;;;;;5053458;28;20184;-68
2021/09/07 06:59:56;;;;;;;1054.30;892.87;;;24.90;46.70;;;;;;5054259;28;20241;-69
2021/09/07 07:02:23;;;;;;;1049.33;887.03;;;24.90;46.50;;;;;;5048732;28;20240;-67
2021/09/07 07:04:51;;;;;;;1032.90;868.33;;;24.80;46.80;;;;;;5053855;28;20699;-68
2021/09/07 07:07:18;;;;;;;730.13;605.53;;;25.20;47.30;;;;;;5054928;28;20241;-70
2021/09/07 07:09:46;;;;;;;1040.37;874.30;;;25.40;47.30;;;;;;5054324;28;20217;-70
2021/09/07 07:12:13;;;;;;;1030.63;880.03;;;25.40;48.10;;;;;;5054300;28;20172;-71
2021/09/07 07:14:40;;;;;;;1025.13;864.77;;;25.20;50.60;;;;;;5044806;28;20184;-71
2021/09/07 07:17:07;;;;;;;1050.13;884.37;;;23.90;59.70;;;;;;5054294;28;20585;-70
2021/09/07 07:19:35;;;;;;;1038.40;860.77;;;23.00;64.30;;;;;;5054164;28;20559;-70
2021/09/07 07:22:02;;;;;;;1037.20;860.10;;;22.30;67.00;;;;;;5054355;28;20183;-69
2021/09/07 07:24:29;;;;;;;998.37;804.77;;;21.80;69.20;;;;;;5042973;28;20223;-69
2021/09/07 07:26:57;;;;;;;1011.13;836.23;;;21.40;70.70;;;;;;5054476;28;20180;-70
2021/09/07 07:29:24;;;;;;;665.33;512.90;;;21.00;72.10;;;;;;5054200;28;20219;-68
2021/09/07 07:31:52;;;;;;;1003.10;805.13;;;20.80;73.00;;;;;;5053786;28;20238;-68
2021/09/07 07:34:19;;;;;;;1030.10;824.33;;;20.50;74.80;;;;;;5054893;28;20437;-70
2021/09/07 07:36:47;;;;;;;732.43;557.93;;;20.20;75.90;;;;;;5052847;28;20452;-69
2021/09/07 07:39:15;;;;;;;1204.73;880.53;;;20.10;76.00;;;;;;5054755;28;20500;-69
2021/09/07 07:41:42;;;;;;;842.10;598.70;;;19.90;76.20;;;;;;5052731;28;20441;-68
2021/09/07 07:44:09;;;;;;;769.67;507.00;;;19.70;77.10;;;;;;5050684;28;20464;-68
2021/09/07 07:46:37;;;;;;;769.97;522.83;;;19.50;78.00;;;;;;5058050;28;20420;-67
2021/09/07 07:49:04;;;;;;;789.17;516.37;;;19.50;79.00;;;;;;5061245;28;20425;-68
2021/09/07 07:51:32;;;;;;;514.97;226.20;;;19.40;79.40;;;;;;5060861;28;20468;-68
2021/09/07 07:53:59;;;;;;;1106.00;713.03;;;19.40;79.90;;;;;;5053470;28;20437;-68
2021/09/07 07:56:26;;;;;;;810.27;566.13;;;19.20;80.20;;;;;;5045794;28;20429;-69
2021/09/07 07:58:54;;;;;;;1109.27;747.17;;;19.20;80.50;;;;;;5048724;28;20483;-68
2021/09/07 08:01:21;;;;;;;824.57;591.30;;;19.10;80.80;;;;;;5041221;28;20470;-69
2021/09/07 08:03:49;;;;;;;760.17;452.80;;;19.20;80.80;;;;;;5047969;28;20456;-68
2021/09/07 08:06:16;;;;;;;518.07;276.83;;;19.20;80.10;;;;;;5055850;28;20445;-68
2021/09/07 08:08:43;;;;;;;1064.67;537.63;;;19.20;79.50;;;;;;5052340;28;20424;-69
2021/09/07 08:11:11;;;;;;;12.47;5.97;;;19.10;79.40;;;;;;5053291;28;20950;-68
2021/09/07 08:13:38;;;;;;;786.93;560.13;;;18.90;78.60;;;;;;5051951;28;20187;-69
2021/09/07 08:16:06;;;;;;;805.40;561.00;;;18.90;78.60;;;;;;5054070;28;20771;-70
2021/09/07 08:18:33;;;;;;;543.33;366.27;;;18.90;79.40;;;;;;5052944;28;20440;-67
2021/09/07 08:21:00;;;;;;;1140.93;824.67;;;18.70;81.70;;;;;;5053314;28;20425;-67
2021/09/07 08:23:28;;;;;;;1166.67;849.20;;;18.60;83.30;;;;;;5052223;28;20789;-68
2021/09/07 08:25:55;;;;;;;1144.00;825.27;;;18.50;85.10;;;;;;5052566;28;20850;-68
2021/09/07 08:28:22;;;;;;;484.23;299.13;;;18.50;86.40;;;;;;5053544;28;20895;-68
2021/09/07 08:30:50;;;;;;;812.13;566.57;;;18.40;88.30;;;;;;5053203;28;21184;-68
2021/09/07 08:33:18;;;;;;;1105.20;763.53;;;18.30;89.20;;;;;;5052467;28;20460;-68
2021/09/07 08:35:46;;;;;;;507.93;223.70;;;18.20;90.10;;;;;;5053105;28;20436;-68
2021/09/07 08:38:13;;;;;;;15.90;7.47;;;18.20;90.40;;;;;;5051858;28;20425;-69
2021/09/07 08:40:42;;;;;;;760.63;377.90;;;18.10;90.80;;;;;;5052625;28;20266;-68
2021/09/07 08:43:09;;;;;;;746.77;226.67;;;18.10;91.20;;;;;;5053385;28;20425;-68
2021/09/07 08:45:39;;;;;;;1096.90;724.77;;;18.00;91.60;;;;;;5052909;28;20440;-66
2021/09/07 08:48:06;;;;;;;1090.27;641.23;;;17.90;91.90;;;;;;5053228;28;20422;-67
2021/09/07 08:50:34;;;;;;;795.70;552.10;;;17.80;92.30;;;;;;5046477;28;20531;-67
2021/09/07 08:53:01;;;;;;;785.30;531.57;;;17.80;92.30;;;;;;5049898;28;20430;-66
2021/09/07 08:55:32;;;;;;;768.57;500.17;;;17.80;92.40;;;;;;5051207;28;20540;-67
2021/09/07 08:57:59;;;;;;;767.47;503.93;;;17.70;92.60;;;;;;5051986;28;20439;-67
2021/09/07 09:00:28;;;;;;;730.03;446.10;;;17.70;92.70;;;;;;5042746;28;20424;-67
2021/09/07 09:02:58;;;;;;;1116.27;774.00;;;17.70;93.20;;;;;;5049335;28;20481;-67
2021/09/07 09:05:27;;;;;;;772.80;487.60;;;17.60;93.60;;;;;;5052804;28;20468;-68
2021/09/07 09:07:56;;;;;;;744.03;299.33;;;17.60;94.00;;;;;;5052518;28;20421;-68
2021/09/07 09:10:25;;;;;;;15.40;6.30;;;17.60;94.30;;;;;;5052528;28;20424;-68
2021/09/07 09:13:18;;;;;;;774.43;394.27;;;17.50;94.60;;;;;;5053197;28;20186;-68
2021/09/07 09:16:08;;;;;;;743.63;308.83;;;17.50;94.90;;;;;;5052446;28;20779;-66
2021/09/07 09:18:39;;;;;;;750.50;192.33;;;17.40;95.20;;;;;;5052439;28;20435;-68
2021/09/07 09:21:29;;;;;;;15.07;5.87;;;17.30;95.30;;;;;;5052805;28;20412;-67
2021/09/07 09:24:13;;;;;;;744.60;186.60;;;17.20;95.90;;;;;;5049061;28;20317;-67
2021/09/07 09:27:00;;;;;;;747.33;192.33;;;17.20;96.20;;;;;;5051241;28;20524;-68
2021/09/07 09:29:46;;;;;;;741.50;193.00;;;17.20;96.40;;;;;;5048538;28;20424;-67
2021/09/07 09:32:14;;;;;;;733.37;185.53;;;17.10;96.80;;;;;;5055152;28;20436;-68
2021/09/07 09:34:42;;;;;;;704.57;179.93;;;17.20;97.10;;;;;;5058971;28;20416;-66
2021/09/07 09:37:12;;;;;;;729.60;182.43;;;17.10;97.30;;;;;;5055785;28;20565;-67
2021/09/07 09:39:49;;;;;;;14.93;5.60;;;17.10;97.80;;;;;;5049094;28;20423;-67
2021/09/07 09:42:16;;;;;;;14.97;5.77;;;17.00;98.20;;;;;;5039078;28;20186;-68
2021/09/07 09:44:44;;;;;;;15.83;7.43;;;17.00;98.60;;;;;;5051810;28;20211;-67
2021/09/07 09:47:12;;;;;;;14.90;5.60;;;17.00;98.90;;;;;;5049923;28;20199;-67
2021/09/07 09:49:43;;;;;;;14.83;5.37;;;16.90;99.30;;;;;;5052526;28;20185;-68
2021/09/07 09:52:13;;;;;;;15.10;5.83;;;16.90;99.80;;;;;;5052105;28;20271;-66
2021/09/07 09:54:41;;;;;;;15.40;6.63;;;16.80;99.90;;;;;;5045823;28;20778;-67
2021/09/07 09:57:08;;;;;;;15.63;7.00;;;16.90;99.90;;;;;;5048090;28;20205;-68
2021/09/07 09:59:36;;;;;;;17.97;10.50;;;16.80;99.90;;;;;;5036570;28;20195;-68
2021/09/07 10:02:03;;;;;;;15.07;6.00;;;16.90;99.90;;;;;;5048838;28;20684;-68
2021/09/07 10:04:31;;;;;;;16.50;8.60;;;16.90;99.90;;;;;;5051351;28;20234;-69
2021/09/07 10:06:59;;;;;;;16.13;8.00;;;16.90;99.90;;;;;;5049785;28;20256;-67
2021/09/07 10:09:27;;;;;;;15.47;6.73;;;16.80;99.90;;;;;;5053776;28;20254;-67
2021/09/07 10:12:11;;;;;;;15.63;7.13;;;16.80;99.90;;;;;;5055262;28;20176;-67
2021/09/07 10:14:44;;;;;;;16.83;8.93;;;16.80;99.90;;;;;;5055324;28;20215;-67
2021/09/07 10:17:44;;;;;;;15.80;7.30;;;16.70;99.90;;;;;;5052619;28;20191;-68
2021/09/07 10:20:34;;;;;;;16.40;8.33;;;16.60;99.90;;;;;;5051040;28;20191;-68
2021/09/07 10:23:25;;;;;;;15.63;6.70;;;16.60;99.90;;;;;;5054039;28;20182;-68
2021/09/07 10:25:53;;;;;;;15.37;6.53;;;16.50;99.90;;;;;;5054346;28;20859;-67
2021/09/07 10:28:33;;;;;;;15.40;6.53;;;16.50;99.90;;;;;;5055441;28;20182;-66
2021/09/07 10:31:11;;;;;;;15.40;6.50;;;16.50;99.90;;;;;;5054353;28;20537;-66
2021/09/07 10:33:43;;;;;;;15.00;5.80;;;16.40;99.90;;;;;;5053943;28;20190;-67
2021/09/07 10:36:13;;;;;;;14.80;5.57;;;16.50;99.90;;;;;;5055275;28;20189;-66
2021/09/07 10:39:03;;;;;;;16.33;8.40;;;16.40;99.90;;;;;;5054343;28;20269;-67
2021/09/07 10:41:30;;;;;;;15.23;6.30;;;16.40;99.90;;;;;;5050451;28;20186;-67
2021/09/07 10:44:05;;;;;;;15.10;6.10;;;16.40;99.90;;;;;;5054432;28;20213;-67
2021/09/07 10:46:50;;;;;;;453.17;122.70;;;16.40;99.90;;;;;;5047022;28;20181;-67
2021/09/07 10:49:25;;;;;;;675.97;180.43;;;16.40;99.90;;;;;;5042570;28;20424;-66
2021/09/07 10:52:11;;;;;;;705.63;185.40;;;16.30;99.90;;;;;;5053633;28;20475;-69
2021/09/07 10:54:53;;;;;;;413.37;106.47;;;16.30;99.90;;;;;;5045833;28;20794;-66
2021/09/07 10:57:45;;;;;;;15.87;7.27;;;16.20;99.90;;;;;;5054822;28;20421;-66
2021/09/07 11:00:25;;;;;;;15.20;6.30;;;16.20;99.90;;;;;;5054991;28;20792;-66
2021/09/07 11:03:03;;;;;;;14.93;5.83;;;16.20;99.90;;;;;;5051379;28;20233;-67
2021/09/07 11:05:34;;;;;;;15.57;7.33;;;16.10;99.90;;;;;;5054663;28;20183;-67
2021/09/07 11:08:13;;;;;;;14.97;5.83;;;16.10;99.90;;;;;;5054706;28;20222;-68
2021/09/07 11:10:52;;;;;;;15.63;7.33;;;16.10;99.90;;;;;;5054920;28;20187;-68
2021/09/07 11:13:25;;;;;;;15.40;6.77;;;16.00;99.90;;;;;;5056522;28;20172;-68
2021/09/07 11:15:55;;;;;;;15.00;6.03;;;15.90;99.90;;;;;;5056513;28;20183;-67
2021/09/07 11:18:31;;;;;;;16.20;8.43;;;16.00;99.90;;;;;;5049328;28;20184;-67
2021/09/07 11:21:01;;;;;;;15.67;7.20;;;16.00;99.90;;;;;;5054894;28;20281;-68
2021/09/07 11:23:34;;;;;;;15.23;6.23;;;15.90;99.90;;;;;;5055839;28;20278;-67
2021/09/07 11:26:05;;;;;;;15.53;7.10;;;15.90;99.90;;;;;;5038922;28;20267;-67
2021/09/07 11:28:34;;;;;;;15.70;7.43;;;15.90;99.90;;;;;;5049253;28;20199;-68
2021/09/07 11:31:04;;;;;;;15.40;6.83;;;15.90;99.90;;;;;;5054237;28;20646;-67
2021/09/07 11:33:36;;;;;;;15.00;6.30;;;15.90;99.90;;;;;;5054256;28;20638;-68
2021/09/07 11:36:08;;;;;;;15.40;7.03;;;15.80;99.90;;;;;;5054728;28;20773;-68
2021/09/07 11:38:47;;;;;;;15.93;7.80;;;15.80;99.90;;;;;;5054399;28;20284;-67
2021/09/07 11:41:15;;;;;;;16.00;8.00;;;15.80;99.90;;;;;;5048761;28;20349;-68
2021/09/07 11:43:49;;;;;;;14.87;5.97;;;15.70;99.90;;;;;;5052765;28;20578;-68
2021/09/07 11:46:19;;;;;;;15.20;6.67;;;15.80;99.90;;;;;;5054091;28;20183;-68
2021/09/07 11:48:52;;;;;;;15.23;6.47;;;15.70;99.90;;;;;;5053728;28;20180;-68
2021/09/07 11:51:34;;;;;;;15.17;6.40;;;15.70;99.90;;;;;;5049354;28;20672;-67
2021/09/07 11:54:04;;;;;;;17.00;9.60;;;15.70;99.90;;;;;;5049167;28;20656;-68
2021/09/07 11:56:38;;;;;;;15.67;7.63;;;15.70;99.90;;;;;;5043366;28;20254;-68
2021/09/07 11:59:15;;;;;;;15.20;6.43;;;15.60;99.90;;;;;;5051314;28;20201;-68
2021/09/07 12:01:56;;;;;;;14.97;6.23;;;15.60;99.90;;;;;;5052514;28;20231;-68
2021/09/07 12:04:24;;;;;;;14.87;5.93;;;15.50;99.90;;;;;;5053893;28;20261;-68
2021/09/07 12:06:52;;;;;;;14.70;5.77;;;15.50;99.90;;;;;;5053996;28;20223;-68
2021/09/07 12:09:27;;;;;;;15.17;6.70;;;15.50;99.90;;;;;;5053340;28;20638;-68
2021/09/07 12:12:13;;;;;;;15.20;6.70;;;15.40;99.90;;;;;;5053586;28;20190;-68
2021/09/07 12:14:43;;;;;;;16.20;8.40;;;15.40;99.90;;;;;;5051346;28;20713;-68
2021/09/07 12:17:16;;;;;;;15.50;7.43;;;15.30;99.90;;;;;;5055374;28;20206;-68
2021/09/07 12:19:51;;;;;;;15.30;6.57;;;15.20;99.90;;;;;;5055637;28;20180;-67
2021/09/07 12:22:27;;;;;;;15.27;7.03;;;15.30;99.90;;;;;;5067053;28;20665;-67
2021/09/07 12:25:15;;;;;;;16.57;8.90;;;15.30;99.90;;;;;;5064123;28;20207;-68
2021/09/07 12:28:01;;;;;;;15.77;7.57;;;15.20;99.90;;;;;;5055152;28;20182;-68